Terminal Aerodrome Forecast
Issued by NWS

Home | Current Version | Previous Version | Graphics & Text | Print | Product List | Glossary On
Versions: 1 2 3 4 5 6 7 8 9 10 11 12
000
FTUS45 KGGW 232330
TAFOLF
TAF
KOLF 232330Z 2400/2424 20007KT P6SM FEW250
     FM240600 11010KT P6SM FEW190 WS020/16035KT
     FM241500 29012KT P6SM FEW110=

USA.gov is the U.S. government's official web portal to all federal, state and local government web resources and services.